Time;durP1;ratioP1;P1;durP2;ratioP2;P2;SDS_P1;SDS_P2;PMS_P1;PMS_P2;Temp;Humidity;BMP_temperature;BMP_pressure;BME280_temperature;BME280_humidity;BME280_pressure;Samples;Min_cycle;Max_cycle;Signal;HPM_P1;HPM_P2
2023/12/31 00:02:15;;;;;;;1.30;1.20;;;;;;;-143.84;64.19;45123.34;5069474;28;20441;-59
2023/12/31 00:04:42;;;;;;;0.90;0.60;;;;;;;-143.84;63.94;45117.63;5069630;28;20498;-60
2023/12/31 00:07:09;;;;;;;0.90;0.70;;;;;;;-143.84;64.07;45132.84;5068873;28;20436;-60
2023/12/31 00:09:39;;;;;;;1.33;0.87;;;;;;;-143.84;64.00;45123.34;5072696;28;20441;-59
2023/12/31 00:12:08;;;;;;;1.23;1.13;;;;;;;-143.84;64.31;45117.63;5073366;28;20992;-60
2023/12/31 00:14:35;;;;;;;1.00;0.80;;;;;;;-143.84;64.34;45129.03;5072487;28;20494;-60
2023/12/31 00:17:02;;;;;;;0.90;0.70;;;;;;;-143.84;64.54;45140.47;5071523;28;20877;-59
2023/12/31 00:19:29;;;;;;;3.73;1.13;;;;;;;-143.84;64.78;45130.94;5071574;28;20518;-60
2023/12/31 00:21:56;;;;;;;0.80;0.50;;;;;;;-143.84;64.86;45129.03;5072316;28;20490;-59
2023/12/31 00:24:24;;;;;;;1.13;0.90;;;;;;;-143.84;64.77;45108.09;5072127;28;20962;-60
2023/12/31 00:26:51;;;;;;;1.10;0.93;;;;;;;-143.84;64.98;45104.28;5072016;28;20888;-60
2023/12/31 00:29:19;;;;;;;4.20;0.70;;;;;;;-143.84;64.81;45125.22;5072333;28;20448;-59
2023/12/31 00:31:46;;;;;;;2.53;0.90;;;;;;;-143.84;65.05;45129.03;5072473;28;20494;-59
2023/12/31 00:34:14;;;;;;;0.83;0.60;;;;;;;-143.84;65.18;45121.44;5072663;28;21084;-60
2023/12/31 00:36:41;;;;;;;1.00;0.80;;;;;;;-143.84;65.36;45201.41;5072280;28;20483;-60
2023/12/31 00:39:08;;;;;;;0.93;0.83;;;;;;;-143.84;65.58;45148.09;5072945;28;20456;-59
2023/12/31 00:41:35;;;;;;;0.90;0.63;;;;;;;-143.84;65.59;45100.47;5072662;28;20631;-60
2023/12/31 00:44:02;;;;;;;1.00;0.90;;;;;;;-143.84;65.73;45123.34;5072581;28;20942;-60
2023/12/31 00:46:30;;;;;;;1.40;0.97;;;;;;;-143.84;65.76;45134.75;5072731;28;20445;-59
2023/12/31 00:48:58;;;;;;;1.20;1.00;;;;;;;-143.84;65.97;45123.34;5072430;28;20506;-60
2023/12/31 00:51:25;;;;;;;1.90;1.57;;;;;;;-143.84;66.10;45119.53;5072829;28;20834;-60
2023/12/31 00:53:52;;;;;;;1.03;0.93;;;;;;;-143.84;65.94;45121.44;5072608;28;20490;-60
2023/12/31 00:56:19;;;;;;;0.90;0.80;;;;;;;-143.84;65.97;45138.56;5072186;28;20433;-59
2023/12/31 00:58:46;;;;;;;0.80;0.50;;;;;;;-143.84;65.95;45129.03;5072444;28;20555;-60
2023/12/31 01:01:13;;;;;;;1.10;1.00;;;;;;;-143.84;65.99;45142.38;5072305;28;20534;-60
2023/12/31 01:03:41;;;;;;;1.57;1.27;;;;;;;-143.84;65.97;45119.53;5072485;28;20506;-59
2023/12/31 01:06:09;;;;;;;1.03;0.93;;;;;;;-143.84;65.96;45127.13;5072350;28;20943;-60
2023/12/31 01:08:36;;;;;;;5.53;2.10;;;;;;;-143.84;66.12;45136.66;5072363;28;20450;-59
2023/12/31 01:11:03;;;;;;;0.90;0.80;;;;;;;-143.84;65.90;45115.72;5072037;28;20436;-60
2023/12/31 01:13:31;;;;;;;0.80;0.57;;;;;;;-143.84;65.85;45104.28;5072166;28;20445;-59
2023/12/31 01:15:58;;;;;;;1.00;0.80;;;;;;;-143.84;66.30;45138.56;5072295;28;20927;-59
2023/12/31 01:18:26;;;;;;;1.67;1.53;;;;;;;-143.84;66.21;45113.81;5071866;28;20505;-60
2023/12/31 01:20:54;;;;;;;2.50;1.53;;;;;;;-143.84;66.04;45138.56;5071299;28;20786;-59
2023/12/31 01:23:21;;;;;;;0.90;0.60;;;;;;;-143.84;66.00;45104.28;5072073;28;20486;-59
2023/12/31 01:25:48;;;;;;;0.80;0.50;;;;;;;-143.84;66.16;45117.63;5071708;28;20502;-59
2023/12/31 01:28:15;;;;;;;0.90;0.67;;;;;;;-143.84;66.20;45148.09;5071607;28;20432;-59
2023/12/31 01:30:43;;;;;;;4.20;1.33;;;;;;;-143.84;66.58;45100.47;5071850;28;20436;-59
2023/12/31 01:33:10;;;;;;;0.90;0.73;;;;;;;-143.84;66.53;45130.94;5071839;28;20502;-60
2023/12/31 01:35:37;;;;;;;1.23;1.00;;;;;;;-143.84;66.74;45113.81;5071842;28;20437;-59
2023/12/31 01:38:06;;;;;;;0.90;0.70;;;;;;;-143.84;66.98;45123.34;5071795;28;20534;-59
2023/12/31 01:40:33;;;;;;;2.50;1.50;;;;;;;-143.84;67.14;45151.91;5071400;28;20437;-59
2023/12/31 01:43:01;;;;;;;1.37;0.73;;;;;;;-143.84;67.61;45150.00;5071180;28;20445;-59
2023/12/31 01:45:28;;;;;;;1.13;0.83;;;;;;;-143.84;67.89;45144.28;5071858;28;20441;-59
2023/12/31 01:47:55;;;;;;;1.77;1.20;;;;;;;-143.84;68.03;45125.22;5071364;28;20437;-59
2023/12/31 01:50:24;;;;;;;2.90;0.87;;;;;;;-143.84;68.17;45140.47;5071538;28;20878;-60
2023/12/31 01:52:53;;;;;;;1.40;0.70;;;;;;;-143.84;68.72;45136.66;5070955;28;20479;-60
2023/12/31 01:55:22;;;;;;;0.90;0.73;;;;;;;-143.84;68.83;45123.34;5070923;28;20514;-58
2023/12/31 01:57:50;;;;;;;0.80;0.50;;;;;;;-143.84;69.09;45132.84;5070785;28;20518;-59
2023/12/31 02:00:19;;;;;;;0.90;0.70;;;;;;;-143.84;69.27;45123.34;5071066;28;20445;-59
2023/12/31 02:02:49;;;;;;;0.90;0.70;;;;;;;-143.84;69.51;45140.47;5071012;28;20440;-60
2023/12/31 02:05:16;;;;;;;1.00;0.90;;;;;;;-143.84;69.73;45115.72;5070740;28;20528;-59
2023/12/31 02:07:43;;;;;;;1.00;0.80;;;;;;;-143.84;69.78;45132.84;5070759;28;20449;-59
2023/12/31 02:10:11;;;;;;;1.00;0.90;;;;;;;-143.84;69.68;45140.47;5070613;28;20445;-59
2023/12/31 02:12:40;;;;;;;1.37;0.80;;;;;;;-143.84;69.58;45136.66;5070985;28;20445;-59
2023/12/31 02:15:09;;;;;;;1.50;1.07;;;;;;;-143.84;69.48;45140.47;5070565;28;20771;-59
2023/12/31 02:17:36;;;;;;;1.10;0.70;;;;;;;-143.84;69.26;45127.13;5070163;28;20595;-59
2023/12/31 02:20:04;;;;;;;3.20;1.60;;;;;;;-143.84;69.10;45132.84;5070624;28;20562;-60
2023/12/31 02:22:32;;;;;;;0.83;0.60;;;;;;;-143.84;68.64;45132.84;5070637;28;20447;-59
2023/12/31 02:25:04;;;;;;;4.40;0.90;;;;;;;-143.84;68.52;45142.38;5070410;28;20456;-59
2023/12/31 02:27:33;;;;;;;1.20;1.10;;;;;;;-143.84;68.69;45127.13;5070369;28;20449;-59
2023/12/31 02:30:00;;;;;;;0.90;0.60;;;;;;;-143.84;68.64;45106.19;5070335;28;20445;-59
2023/12/31 02:32:27;;;;;;;1.93;1.53;;;;;;;-143.84;68.63;45121.44;5070314;28;20451;-59
2023/12/31 02:34:54;;;;;;;1.00;0.90;;;;;;;-143.84;69.06;45130.94;5070221;28;20593;-59
2023/12/31 02:37:21;;;;;;;1.00;0.80;;;;;;;-143.84;69.06;45121.44;5070096;28;20477;-59
2023/12/31 02:39:49;;;;;;;1.43;1.33;;;;;;;-143.84;68.97;45121.44;5070607;28;20833;-59
2023/12/31 02:42:16;;;;;;;1.13;0.87;;;;;;;-143.84;68.72;45144.28;5070174;28;20441;-59
2023/12/31 02:44:44;;;;;;;1.23;1.10;;;;;;;-143.84;68.87;45127.13;5070092;28;20815;-59
2023/12/31 02:47:11;;;;;;;2.53;1.37;;;;;;;-143.84;69.02;45129.03;5069993;28;21007;-59
2023/12/31 02:49:38;;;;;;;0.90;0.60;;;;;;;-143.84;69.23;45117.63;5069951;28;20459;-59
2023/12/31 02:52:06;;;;;;;4.40;1.33;;;;;;;-143.84;69.22;45125.22;5069979;28;20440;-60
2023/12/31 02:54:33;;;;;;;0.93;0.80;;;;;;;-143.84;69.01;45130.94;5070059;28;20437;-59
2023/12/31 02:57:00;;;;;;;2.33;2.13;;;;;;;-143.84;68.98;45163.31;5069578;28;20445;-59
2023/12/31 02:59:27;;;;;;;3.43;2.53;;;;;;;-143.84;68.85;45110.00;5069822;28;20441;-60
2023/12/31 03:01:56;;;;;;;1.60;1.50;;;;;;;-143.84;68.76;45144.28;5069665;28;20510;-59
2023/12/31 03:04:23;;;;;;;2.13;1.53;;;;;;;-143.84;68.84;45151.91;5069790;28;20433;-59
2023/12/31 03:06:51;;;;;;;1.00;0.80;;;;;;;-143.84;68.69;45132.84;5069680;28;20432;-59
2023/12/31 03:09:19;;;;;;;0.90;0.50;;;;;;;-143.84;68.59;45165.22;5069726;28;20445;-59
2023/12/31 03:11:46;;;;;;;1.67;1.30;;;;;;;-143.84;68.43;45127.13;5069409;28;20435;-59
2023/12/31 03:14:14;;;;;;;1.43;1.33;;;;;;;-143.84;68.98;45136.66;5069641;28;20440;-60
2023/12/31 03:16:44;;;;;;;1.13;1.03;;;;;;;-143.84;69.28;45113.81;5069154;28;20441;-59
2023/12/31 03:19:13;;;;;;;2.83;1.17;;;;;;;-143.84;69.45;45136.66;5069007;28;21061;-59
2023/12/31 03:21:40;;;;;;;0.80;0.43;;;;;;;-143.84;69.70;45129.03;5069517;28;20514;-60
2023/12/31 03:24:08;;;;;;;1.97;1.87;;;;;;;-143.84;69.41;45127.13;5069354;28;21149;-60
2023/12/31 03:26:35;;;;;;;0.93;0.80;;;;;;;-143.84;69.23;45170.94;5069337;28;20445;-59
2023/12/31 03:29:03;;;;;;;1.00;0.90;;;;;;;-143.84;68.84;45127.13;5069443;28;20440;-59
2023/12/31 03:31:32;;;;;;;0.80;0.50;;;;;;;-143.84;68.73;45123.34;5069078;28;20447;-60
2023/12/31 03:33:59;;;;;;;2.10;1.33;;;;;;;-143.84;68.80;45127.13;5069684;28;20529;-60
2023/12/31 03:36:28;;;;;;;3.00;1.10;;;;;;;-143.84;68.75;45151.91;5069532;28;20486;-60
2023/12/31 03:38:55;;;;;;;1.00;0.80;;;;;;;-143.84;68.90;45121.44;5069233;28;20879;-59
2023/12/31 03:41:22;;;;;;;1.00;0.87;;;;;;;-143.84;68.86;45132.84;5069423;28;20980;-60
2023/12/31 03:43:49;;;;;;;2.20;1.80;;;;;;;-143.84;68.75;45129.03;5068931;28;20441;-60
2023/12/31 03:46:16;;;;;;;0.90;0.50;;;;;;;-143.84;69.15;45111.91;5069452;28;20437;-60
2023/12/31 03:48:43;;;;;;;0.90;0.80;;;;;;;-143.84;68.99;45146.19;5069339;28;21013;-60
2023/12/31 03:51:11;;;;;;;1.13;1.03;;;;;;;-143.84;69.30;45119.53;5069402;28;20506;-60
2023/12/31 03:53:40;;;;;;;1.43;1.33;;;;;;;-143.84;69.29;45140.47;5069395;28;20483;-60
2023/12/31 03:56:09;;;;;;;1.43;0.87;;;;;;;-143.84;69.11;45132.84;5069703;28;20433;-60
2023/12/31 03:58:36;;;;;;;1.90;1.00;;;;;;;-143.84;68.98;45136.66;5069265;28;20476;-59
2023/12/31 04:01:04;;;;;;;1.20;0.80;;;;;;;-143.84;68.67;45144.28;5069267;28;20425;-59
2023/12/31 04:03:31;;;;;;;0.80;0.50;;;;;;;-143.84;68.64;45132.84;5069646;28;20501;-60
2023/12/31 04:05:58;;;;;;;1.00;0.70;;;;;;;-143.84;68.95;45129.03;5069273;28;20582;-60
2023/12/31 04:08:25;;;;;;;0.90;0.77;;;;;;;-143.84;69.82;45151.91;5069158;28;20440;-60
2023/12/31 04:10:54;;;;;;;1.20;1.10;;;;;;;-143.84;70.63;45123.34;5068889;28;20441;-60
2023/12/31 04:13:22;;;;;;;3.30;0.73;;;;;;;-143.84;70.67;45150.00;5068938;28;20440;-60
2023/12/31 04:15:49;;;;;;;0.80;0.50;;;;;;;-143.84;70.88;45134.75;5069275;28;20433;-60
2023/12/31 04:18:16;;;;;;;1.10;1.00;;;;;;;-143.84;71.20;45151.91;5068514;28;20515;-59
2023/12/31 04:20:44;;;;;;;1.20;1.10;;;;;;;-143.84;71.74;45111.91;5068794;28;20455;-60
2023/12/31 04:23:11;;;;;;;0.90;0.67;;;;;;;-143.84;72.26;45117.63;5069105;28;20495;-60
2023/12/31 04:25:38;;;;;;;1.43;1.33;;;;;;;-143.84;72.58;45127.13;5069059;28;20518;-60
2023/12/31 04:28:07;;;;;;;1.00;0.83;;;;;;;-143.84;72.73;45129.03;5069024;28;20466;-61
2023/12/31 04:30:34;;;;;;;1.47;1.20;;;;;;;-143.84;73.11;45153.81;5069018;28;20488;-60
2023/12/31 04:33:01;;;;;;;2.60;1.77;;;;;;;-143.84;73.19;45136.66;5068686;28;20981;-60
2023/12/31 04:35:28;;;;;;;0.90;0.70;;;;;;;-143.84;73.62;45134.75;5068990;28;20870;-60
2023/12/31 04:37:56;;;;;;;1.37;1.27;;;;;;;-143.84;73.63;45148.09;5068831;28;20477;-60
2023/12/31 04:40:23;;;;;;;2.00;0.80;;;;;;;-143.84;73.56;45144.28;5068873;28;20452;-60
2023/12/31 04:42:50;;;;;;;1.40;1.23;;;;;;;-143.84;73.53;45100.47;5068787;28;21181;-59
2023/12/31 04:45:18;;;;;;;1.03;0.93;;;;;;;-143.84;73.30;45142.38;5068741;28;20490;-61
2023/12/31 04:47:45;;;;;;;1.73;1.63;;;;;;;-143.84;73.27;45138.56;5068787;28;20437;-60
2023/12/31 04:50:13;;;;;;;1.83;1.70;;;;;;;-143.84;73.33;45134.75;5068700;28;20433;-60
2023/12/31 04:52:40;;;;;;;1.00;0.60;;;;;;;-143.84;73.38;45150.00;5068537;28;20838;-59
2023/12/31 04:55:07;;;;;;;2.03;1.50;;;;;;;-143.84;73.27;45117.63;5068363;28;20432;-59
2023/12/31 04:57:34;;;;;;;1.67;0.87;;;;;;;-143.84;73.12;45136.66;5070747;28;20441;-59
2023/12/31 05:00:02;;;;;;;0.80;0.50;;;;;;;-143.84;73.19;45115.72;5071856;28;20456;-59
2023/12/31 05:02:31;;;;;;;2.30;2.10;;;;;;;-143.84;73.26;45136.66;5071551;28;20448;-59
2023/12/31 05:04:58;;;;;;;3.57;1.30;;;;;;;-143.84;73.27;45130.94;5071439;28;20506;-60
2023/12/31 05:07:25;;;;;;;2.40;2.10;;;;;;;-143.84;73.32;45134.75;5072198;28;20514;-60
2023/12/31 05:09:52;;;;;;;0.80;0.50;;;;;;;-143.84;73.08;45132.84;5072271;28;20486;-60
2023/12/31 05:12:19;;;;;;;3.10;1.30;;;;;;;-143.84;73.36;45138.56;5072021;28;20507;-60
2023/12/31 05:14:46;;;;;;;8.93;1.57;;;;;;;-143.84;73.10;45113.81;5071938;28;20452;-60
2023/12/31 05:17:14;;;;;;;0.93;0.83;;;;;;;-143.84;72.90;45157.59;5071997;28;20553;-60
2023/12/31 05:19:45;;;;;;;9.67;2.30;;;;;;;-143.84;72.60;45127.13;5071717;28;20525;-61
2023/12/31 05:22:12;;;;;;;1.60;1.30;;;;;;;-143.84;72.62;45125.22;5071706;28;20808;-61
2023/12/31 05:24:39;;;;;;;1.87;1.30;;;;;;;-143.84;72.50;45132.84;5072111;28;20442;-60
2023/12/31 05:27:06;;;;;;;2.70;1.53;;;;;;;-143.84;72.28;45142.38;5071697;28;20550;-60
2023/12/31 05:29:33;;;;;;;3.03;1.17;;;;;;;-143.84;72.21;45127.13;5071958;28;20438;-59
2023/12/31 05:32:00;;;;;;;1.27;1.17;;;;;;;-143.84;72.59;45146.19;5071749;28;20436;-60
2023/12/31 05:34:27;;;;;;;0.80;0.50;;;;;;;-143.84;72.42;45129.03;5071792;28;20429;-60
2023/12/31 05:36:56;;;;;;;2.60;0.90;;;;;;;-143.84;72.13;45161.41;5071601;28;20448;-60
2023/12/31 05:39:23;;;;;;;1.73;1.60;;;;;;;-143.84;71.84;45155.69;5071597;28;20961;-60
2023/12/31 05:41:50;;;;;;;1.67;1.10;;;;;;;-143.84;71.68;45130.94;5071467;28;20473;-60
2023/12/31 05:44:17;;;;;;;3.23;1.50;;;;;;;-143.84;71.60;45129.03;5071417;28;20946;-60
2023/12/31 05:46:44;;;;;;;1.57;1.00;;;;;;;-143.84;71.54;45129.03;5071363;28;20444;-61
2023/12/31 05:49:11;;;;;;;0.90;0.70;;;;;;;-143.84;71.34;45132.84;5071390;28;20490;-60
2023/12/31 05:51:38;;;;;;;1.60;1.50;;;;;;;-143.84;71.19;45115.72;5071476;28;20445;-60
2023/12/31 05:54:07;;;;;;;2.00;1.23;;;;;;;-143.84;71.17;45144.28;5071379;28;20494;-60
2023/12/31 05:56:34;;;;;;;1.30;1.20;;;;;;;-143.84;71.02;45144.28;5071180;28;20441;-60
2023/12/31 05:59:01;;;;;;;11.27;2.00;;;;;;;-143.84;70.66;45148.09;5071115;28;20945;-60
2023/12/31 06:01:28;;;;;;;0.90;0.80;;;;;;;-143.84;70.21;45129.03;5071449;28;20891;-60
2023/12/31 06:03:56;;;;;;;2.60;2.40;;;;;;;-143.84;70.08;45148.09;5070957;28;20436;-64
2023/12/31 06:06:23;;;;;;;1.63;0.70;;;;;;;-143.84;70.00;45146.19;5070655;28;20433;-59
2023/12/31 06:08:51;;;;;;;1.50;1.37;;;;;;;-143.84;70.02;45136.66;5071203;28;20433;-60
2023/12/31 06:11:19;;;;;;;1.63;1.43;;;;;;;-143.84;69.53;45132.84;5070936;28;20463;-60
2023/12/31 06:13:46;;;;;;;0.80;0.50;;;;;;;-143.84;69.36;45148.09;5070862;28;20494;-61
2023/12/31 06:16:13;;;;;;;1.17;1.07;;;;;;;-143.84;69.25;45119.53;5070806;28;20506;-60
2023/12/31 06:18:39;;;;;;;1.50;1.40;;;;;;;-143.84;68.98;45117.63;5070384;28;20970;-60
2023/12/31 06:21:07;;;;;;;1.23;1.13;;;;;;;-143.84;69.12;45140.47;5070814;28;20421;-59
2023/12/31 06:23:34;;;;;;;3.20;0.90;;;;;;;-143.84;68.99;45125.22;5070831;28;20507;-61
2023/12/31 06:26:01;;;;;;;1.17;1.07;;;;;;;-143.84;68.87;45129.03;5070559;28;20440;-60
2023/12/31 06:28:29;;;;;;;1.77;1.17;;;;;;;-143.84;68.37;45144.28;5070780;28;20482;-60
2023/12/31 06:30:56;;;;;;;2.03;1.00;;;;;;;-143.84;68.49;45142.38;5070620;28;20437;-60
2023/12/31 06:33:25;;;;;;;0.87;0.60;;;;;;;-143.84;68.04;45129.03;5070393;28;20456;-61
2023/12/31 06:35:53;;;;;;;2.23;1.43;;;;;;;-143.84;67.89;45151.91;5070502;28;20858;-60
2023/12/31 06:38:20;;;;;;;1.23;1.13;;;;;;;-143.84;67.39;45148.09;5070319;28;20476;-60
2023/12/31 06:40:47;;;;;;;1.07;0.97;;;;;;;-143.84;67.24;45129.03;5070451;28;20440;-61
2023/12/31 06:43:14;;;;;;;0.90;0.70;;;;;;;-143.84;67.12;45150.00;5070578;28;20433;-60
2023/12/31 06:45:43;;;;;;;1.90;1.37;;;;;;;-143.84;66.98;45125.22;5070254;28;20442;-60
2023/12/31 06:48:10;;;;;;;0.80;0.47;;;;;;;-143.84;66.72;45117.63;5070384;28;20459;-60
2023/12/31 06:50:37;;;;;;;0.90;0.60;;;;;;;-143.84;66.56;45151.91;5070864;28;20433;-60
2023/12/31 06:53:05;;;;;;;2.47;2.27;;;;;;;-143.84;66.61;45144.28;5070511;28;20503;-60
2023/12/31 06:55:32;;;;;;;1.23;1.13;;;;;;;-143.84;66.29;45132.84;5070562;28;20460;-60
2023/12/31 06:58:00;;;;;;;1.13;1.03;;;;;;;-143.84;65.86;45117.63;5070419;28;20502;-60
2023/12/31 07:00:27;;;;;;;1.93;1.50;;;;;;;-143.84;65.08;45102.38;5069736;28;20992;-60
2023/12/31 07:02:55;;;;;;;1.50;0.93;;;;;;;-143.84;64.71;45125.22;5069928;28;20506;-60
2023/12/31 07:05:22;;;;;;;2.30;0.80;;;;;;;-143.84;64.00;45138.56;5069928;28;20441;-60
2023/12/31 07:07:50;;;;;;;2.00;1.07;;;;;;;-143.84;63.49;45129.03;5069704;28;20433;-60
2023/12/31 07:10:17;;;;;;;0.83;0.57;;;;;;;-143.84;62.49;45140.47;5069869;28;20965;-60
2023/12/31 07:12:44;;;;;;;2.13;0.73;;;;;;;-143.84;62.47;45104.28;5069744;28;20445;-60
2023/12/31 07:15:11;;;;;;;4.23;1.43;;;;;;;-143.84;61.80;45138.56;5069957;28;20996;-60
2023/12/31 07:17:39;;;;;;;1.40;1.07;;;;;;;-143.84;61.09;45119.53;5068694;28;20489;-60
2023/12/31 07:20:09;;;;;;;1.40;1.10;;;;;;;-143.84;60.71;45098.56;5070509;28;20472;-61
2023/12/31 07:22:37;;;;;;;2.33;1.37;;;;;;;-143.84;60.21;45125.22;5069934;28;20472;-60
2023/12/31 07:25:06;;;;;;;0.93;0.83;;;;;;;-143.84;58.05;45123.34;5069728;28;20470;-61
2023/12/31 07:27:33;;;;;;;1.63;1.50;;;;;;;-143.84;57.56;45125.22;5069592;28;20457;-60
2023/12/31 07:30:00;;;;;;;4.83;0.93;;;;;;;-143.84;54.70;45096.66;5069729;28;20879;-61
2023/12/31 07:32:28;;;;;;;2.70;1.20;;;;;;;-143.84;53.69;45108.09;5069469;28;20432;-60
2023/12/31 07:34:55;;;;;;;1.10;0.93;;;;;;;-143.84;51.77;45104.28;5069325;28;20502;-60
2023/12/31 07:37:23;;;;;;;1.30;0.97;;;;;;;-143.84;50.33;45111.91;5069681;28;20792;-60
2023/12/31 07:39:50;;;;;;;1.37;1.27;;;;;;;-143.84;48.52;45110.00;5069531;28;20503;-60
2023/12/31 07:42:18;;;;;;;2.27;1.53;;;;;;;-143.84;47.03;45106.19;5069789;28;20501;-60
2023/12/31 07:44:45;;;;;;;1.70;1.60;;;;;;;-143.84;45.95;45090.97;5069337;28;20907;-61
2023/12/31 07:47:12;;;;;;;1.23;0.80;;;;;;;-143.84;45.50;45056.69;5069243;28;21053;-61
2023/12/31 07:49:39;;;;;;;5.80;1.13;;;;;;;-143.84;44.51;45070.00;5069026;28;20452;-61
2023/12/31 07:52:07;;;;;;;1.30;1.00;;;;;;;-143.84;44.08;45079.53;5069510;28;20914;-60
2023/12/31 07:54:35;;;;;;;1.20;1.03;;;;;;;-143.84;43.05;45070.00;5068950;28;20444;-60
2023/12/31 07:57:03;;;;;;;1.33;1.23;;;;;;;-143.84;41.71;45075.72;5068842;28;20939;-60
2023/12/31 07:59:30;;;;;;;1.33;1.23;;;;;;;-143.84;41.94;45066.22;5069106;28;20567;-61
2023/12/31 08:01:59;;;;;;;1.10;0.97;;;;;;;-143.84;41.64;45085.25;5069034;28;20518;-61
2023/12/31 08:04:27;;;;;;;2.10;1.80;;;;;;;-143.84;40.68;45054.78;5069453;28;20535;-60
2023/12/31 08:06:54;;;;;;;3.30;1.37;;;;;;;-143.84;39.76;45083.34;5068982;28;20455;-61
2023/12/31 08:09:21;;;;;;;1.20;1.07;;;;;;;-143.84;39.61;45041.44;5068861;28;20478;-61
2023/12/31 08:11:50;;;;;;;1.20;1.00;;;;;;;-143.84;38.94;45054.78;5069055;28;20474;-61
2023/12/31 08:14:17;;;;;;;3.00;1.77;;;;;;;-143.84;38.48;45052.88;5068994;28;20437;-61
2023/12/31 08:16:45;;;;;;;0.90;0.70;;;;;;;-143.84;37.71;45043.34;5068859;28;20444;-61
2023/12/31 08:19:12;;;;;;;3.07;1.63;;;;;;;-143.84;38.51;45041.44;5068780;28;20542;-61
2023/12/31 08:21:39;;;;;;;1.33;0.90;;;;;;;-143.84;38.10;45028.13;5068756;28;20851;-61
2023/12/31 08:24:06;;;;;;;3.80;2.30;;;;;;;-143.84;37.02;45041.44;5068761;28;20451;-60
2023/12/31 08:26:34;;;;;;;4.80;2.70;;;;;;;-143.84;36.79;45041.44;5068910;28;20796;-61
2023/12/31 08:29:02;;;;;;;1.63;1.47;;;;;;;-143.84;37.57;45054.78;5069544;28;20441;-61
2023/12/31 08:31:30;;;;;;;1.30;1.20;;;;;;;-143.84;37.01;45026.22;5052413;28;20441;-61
2023/12/31 08:33:57;;;;;;;1.73;1.57;;;;;;;-143.84;35.82;45037.66;5052434;28;20528;-61
2023/12/31 08:36:24;;;;;;;1.43;1.33;;;;;;;-143.84;35.93;45028.13;5052481;28;20449;-61
2023/12/31 08:38:51;;;;;;;1.50;1.37;;;;;;;-143.84;35.68;45039.53;5052663;28;20507;-61
2023/12/31 08:41:18;;;;;;;1.73;1.27;;;;;;;-143.84;36.10;45030.03;5052415;28;20537;-61
2023/12/31 08:43:45;;;;;;;1.90;1.80;;;;;;;-143.84;36.24;45018.59;5052174;28;20531;-61
2023/12/31 08:46:14;;;;;;;2.57;2.37;;;;;;;-143.84;35.22;45026.22;5052067;28;20438;-61
2023/12/31 08:48:43;;;;;;;1.80;1.70;;;;;;;-143.84;35.14;45031.94;5052567;28;20489;-61
2023/12/31 08:51:10;;;;;;;1.63;1.20;;;;;;;-143.84;35.13;45031.94;5052115;28;20491;-61
2023/12/31 08:53:37;;;;;;;1.87;1.60;;;;;;;-143.84;34.93;45037.66;5052285;28;20503;-61
2023/12/31 08:56:05;;;;;;;1.57;1.47;;;;;;;-143.84;34.83;45037.66;5052110;28;20484;-61
2023/12/31 08:58:32;;;;;;;2.93;1.73;;;;;;;-143.84;34.67;45020.50;5051844;28;20456;-61
2023/12/31 09:00:59;;;;;;;2.40;2.20;;;;;;;-143.84;34.57;44991.94;5052104;28;20489;-61
2023/12/31 09:03:28;;;;;;;4.07;2.20;;;;;;;-143.84;34.92;45022.41;5052168;28;20852;-61
2023/12/31 09:05:55;;;;;;;3.07;2.17;;;;;;;-143.84;35.34;45033.84;5051851;28;20457;-60
2023/12/31 09:08:22;;;;;;;3.00;2.70;;;;;;;-143.84;35.02;45028.13;5052033;28;20831;-61
2023/12/31 09:10:49;;;;;;;2.17;1.83;;;;;;;-143.84;34.94;45022.41;5051676;28;20442;-61
2023/12/31 09:13:17;;;;;;;3.60;2.07;;;;;;;-143.84;35.08;45030.03;5051948;28;20437;-61
2023/12/31 09:15:45;;;;;;;2.33;1.80;;;;;;;-143.84;34.37;45050.97;5052174;28;20613;-61
2023/12/31 09:18:12;;;;;;;2.27;1.77;;;;;;;-143.84;34.36;45035.75;5051261;28;20482;-61
2023/12/31 09:20:41;;;;;;;2.23;1.30;;;;;;;-143.84;34.32;45026.22;5051129;28;20477;-61
2023/12/31 09:23:09;;;;;;;1.00;0.90;;;;;;;-143.84;34.70;45030.03;5051822;28;20446;-61
2023/12/31 09:25:36;;;;;;;2.00;1.90;;;;;;;-143.84;34.37;45012.88;5051512;28;20442;-61
2023/12/31 09:28:04;;;;;;;1.70;1.60;;;;;;;-143.84;34.44;45024.31;5050911;28;20440;-61
2023/12/31 09:30:31;;;;;;;2.00;1.90;;;;;;;-143.84;34.65;45049.06;5050596;28;20449;-61
2023/12/31 09:32:59;;;;;;;1.30;0.90;;;;;;;-143.84;34.37;45033.84;5050027;28;20787;-61
2023/12/31 09:35:26;;;;;;;2.27;1.83;;;;;;;-143.84;34.26;45049.06;5050479;28;20444;-60
2023/12/31 09:37:54;;;;;;;1.77;1.43;;;;;;;-143.84;34.14;45012.88;5050295;28;20437;-60
2023/12/31 09:40:21;;;;;;;2.27;1.93;;;;;;;-143.84;35.45;45007.19;5049787;28;20535;-62
2023/12/31 09:42:49;;;;;;;1.83;1.43;;;;;;;-143.84;34.36;45012.88;5050625;28;20445;-62
2023/12/31 09:45:21;;;;;;;1.93;1.30;;;;;;;-143.84;34.10;45024.31;5051158;28;21375;-61
2023/12/31 09:47:50;;;;;;;4.27;2.70;;;;;;;-143.84;34.03;45010.97;5050762;28;20438;-61
2023/12/31 09:50:19;;;;;;;2.17;1.60;;;;;;;-143.84;34.58;45016.69;5050981;28;20450;-60
2023/12/31 09:52:47;;;;;;;1.63;1.53;;;;;;;-143.84;34.09;45031.94;5050953;28;20469;-61
2023/12/31 09:55:18;;;;;;;2.60;1.67;;;;;;;-143.84;34.13;45028.13;5050806;28;20433;-61
2023/12/31 09:57:47;;;;;;;1.50;1.33;;;;;;;-143.84;34.37;45024.31;5051203;28;20488;-60
2023/12/31 10:00:15;;;;;;;1.33;1.10;;;;;;;-143.84;33.83;45045.25;5050841;28;20500;-61
2023/12/31 10:02:43;;;;;;;1.20;1.10;;;;;;;-143.84;33.46;45035.75;5051007;28;20940;-61
2023/12/31 10:05:10;;;;;;;1.00;0.80;;;;;;;-143.84;33.77;45026.22;5050534;28;20444;-60
2023/12/31 10:07:37;;;;;;;1.70;1.00;;;;;;;-143.84;33.58;45037.66;5050518;28;20456;-60
2023/12/31 10:10:06;;;;;;;3.93;1.50;;;;;;;-143.84;33.76;45026.22;5050484;28;20441;-60
2023/12/31 10:12:35;;;;;;;1.07;0.97;;;;;;;-143.84;33.90;45054.78;5050452;28;20488;-62
2023/12/31 10:15:02;;;;;;;2.17;2.07;;;;;;;-143.84;33.74;45050.97;5050679;28;20537;-61
2023/12/31 10:17:29;;;;;;;2.20;1.57;;;;;;;-143.84;33.59;45024.31;5050370;28;20485;-61
2023/12/31 10:19:57;;;;;;;1.63;1.10;;;;;;;-143.84;33.65;45031.94;5050327;28;20539;-60
2023/12/31 10:22:25;;;;;;;1.47;1.37;;;;;;;-143.84;33.68;45022.41;5050520;28;20473;-60
2023/12/31 10:24:52;;;;;;;1.00;0.80;;;;;;;-143.84;33.43;45030.03;5050082;28;20500;-60
2023/12/31 10:27:21;;;;;;;1.17;0.80;;;;;;;-143.84;33.23;45064.31;5050423;28;20442;-60
2023/12/31 10:29:52;;;;;;;2.20;1.10;;;;;;;-143.84;33.31;45007.19;5050090;28;20437;-61
2023/12/31 10:32:21;;;;;;;1.00;0.80;;;;;;;-143.84;33.11;45045.25;5050571;28;20448;-60
2023/12/31 10:35:03;;;;;;;1.73;1.03;;;;;;;-143.84;33.20;45041.44;5050147;28;20441;-61
2023/12/31 10:37:30;;;;;;;1.10;1.00;;;;;;;-143.84;33.64;45033.84;5050304;28;20507;-60
2023/12/31 10:39:57;;;;;;;0.90;0.70;;;;;;;-143.84;33.57;45010.97;5050119;28;20986;-60
2023/12/31 10:42:24;;;;;;;4.13;3.53;;;;;;;-143.84;33.43;45030.03;5049957;28;20441;-61
2023/12/31 10:44:57;;;;;;;1.73;1.63;;;;;;;-143.84;33.54;45035.75;5049801;28;20438;-61
2023/12/31 10:47:28;;;;;;;2.13;1.53;;;;;;;-143.84;33.63;45001.47;5049834;28;20991;-60
2023/12/31 10:49:59;;;;;;;1.47;1.30;;;;;;;-143.84;33.49;45018.59;5049998;28;20445;-61
2023/12/31 10:52:28;;;;;;;1.00;0.90;;;;;;;-143.84;33.62;45033.84;5049736;28;20441;-60
2023/12/31 10:54:58;;;;;;;1.13;1.03;;;;;;;-143.84;33.18;45039.53;5049745;28;20507;-60
2023/12/31 10:57:26;;;;;;;1.33;1.23;;;;;;;-143.84;33.41;45037.66;5049838;28;20896;-60
2023/12/31 10:59:57;;;;;;;1.73;1.27;;;;;;;-143.84;33.31;45043.34;5049535;28;20480;-61
2023/12/31 11:02:28;;;;;;;2.67;1.50;;;;;;;-143.84;33.71;45033.84;5049743;28;20511;-60
2023/12/31 11:04:56;;;;;;;1.17;1.07;;;;;;;-143.84;34.05;45049.06;5049751;28;20437;-61
2023/12/31 11:07:24;;;;;;;1.27;1.00;;;;;;;-143.84;34.00;45050.97;5049465;28;20499;-60
2023/12/31 11:09:51;;;;;;;4.13;1.73;;;;;;;-143.84;33.88;45050.97;5049406;28;20442;-60
2023/12/31 11:12:19;;;;;;;0.90;0.70;;;;;;;-143.84;33.83;45035.75;5049415;28;20935;-61
2023/12/31 11:14:51;;;;;;;0.90;0.77;;;;;;;-143.84;34.09;45035.75;5049426;28;20445;-60
2023/12/31 11:17:48;;;;;;;1.50;0.97;;;;;;;-143.84;34.18;45056.69;5049214;28;20486;-60
2023/12/31 11:20:39;;;;;;;1.73;1.27;;;;;;;-143.84;34.45;45043.34;5044699;28;20485;-61